Latest Coastal Weather Observations for Shark Bay Airport

IDW60701

Issued at 9:53 pm WST Monday 4 May 2026 (issued every 10 minutes, with the page automatically refreshed every 10 minutes)

About coastal observations | Map of coastal stations | Coastal observations for WA | Marine services | Other Formats
Station Details ID: 006105 Name: SHARK BAY AIRPORT Lat: -25.89 Lon: 113.58 Height: 33.8 m
Data from the previous 72 hours. | See also: Recent months at Shark Bay Airport
Date/Time
WST
Wind Sea
Height
m
Swell Vis
km
Cloud Weather Temp
°C
Press
MSL
hPa
Rain since
9am
mm
Dir  Spd
kts
Gust
kts
Height
m
Period
s
Dir
04/09:30pm ESE 9 11 - - - - - - - 22.3 1018.5 0.0
04/09:00pm ESE 8 11 - - - - - - - 21.8 1018.4 0.0
04/08:30pm ESE 10 12 - - - - - - - 22.7 1018.0 0.0
04/08:00pm SE 8 10 - - - - - - - 22.9 1018.3 0.0
04/07:30pm SE 7 9 - - - - - - - 22.9 1018.0 0.0
04/07:00pm SE 7 8 - - - - - - - 21.9 1017.7 0.0
04/06:30pm SSE 7 8 - - - - - - - 23.9 1017.7 0.0
04/06:00pm SSE 5 7 - - - - - - - 25.2 1017.2 0.0
04/05:30pm SE 8 11 - - - - - - - 26.9 1017.0 0.0
04/05:00pm SE 10 13 - - - - - - - 28.1 1017.0 0.0
04/04:30pm ESE 11 15 - - - - - - - 28.0 1017.0 0.0
04/04:00pm ESE 13 16 - - - - - - - 29.1 1016.9 0.0
04/03:30pm ESE 13 17 - - - - - - - 29.0 1016.8 0.0
04/03:00pm ESE 14 19 - - - - - - - 29.2 1016.9 0.0
04/02:30pm E 13 19 - - - - - - - 29.0 1016.9 0.0
04/02:00pm E 14 17 - - - - - - - 28.7 1017.0 0.0
04/01:30pm E 14 19 - - - - - - - 28.4 1017.5 0.0
04/01:00pm E 14 19 - - - - - - - 27.8 1017.9 0.0
04/12:30pm E 14 20 - - - - - - - 27.4 1018.3 0.0
04/12:00pm E 16 21 - - - - - - - 26.3 1018.7 0.0
04/11:30am E 15 23 - - - - - - - 25.8 1019.2 0.0
04/11:00am E 15 21 - - - - - - - 24.3 1019.7 0.0
04/10:30am E 17 22 - - - - - - - 23.4 1019.9 0.0
04/10:00am E 15 23 - - - - - - - 23.1 1020.2 0.0
04/09:30am E 16 22 - - - - - - - 22.3 1020.1 0.0
04/09:00am E 15 20 - - - - - - - 21.5 1020.1 0.0
04/08:30am ESE 16 21 - - - - - - - 20.8 1019.9 0.0
04/08:00am ESE 14 19 - - - - - - - 19.9 1019.7 0.0
04/07:30am ESE 12 18 - - - - - - - 18.4 1019.5 0.0
04/07:00am ESE 12 16 - - - - - - - 17.2 1019.3 0.0
04/06:30am ESE 11 14 - - - - - - - 17.4 1019.1 0.0
04/06:00am ESE 12 15 - - - - - - - 17.8 1019.0 0.0
04/05:30am ESE 12 16 - - - - - - - 18.0 1018.7 0.0
04/05:00am ESE 11 16 - - - - - - - 18.2 1018.6 0.0
04/04:30am ESE 11 15 - - - - - - - 18.4 1018.5 0.0
04/04:00am ESE 12 16 - - - - - - - 18.6 1018.3 0.0
04/03:30am ESE 12 17 - - - - - - - 18.8 1018.2 0.0
04/03:00am ESE 12 16 - - - - - - - 19.0 1018.3 0.0
04/02:30am ESE 12 17 - - - - - - - 18.9 1018.3 0.0
04/02:00am ESE 12 16 - - - - - - - 19.0 1018.3 0.0
04/01:30am ESE 11 15 - - - - - - - 19.1 1018.3 0.0
04/01:00am ESE 11 14 - - - - - - - 19.0 1018.3 0.0
04/12:30am ESE 10 13 - - - - - - - 18.3 1018.3 0.0
04/12:00am ESE 10 13 - - - - - - - 18.3 1018.4 0.0
 
Date/Time
WST
Wind Sea
Height
m
Swell Vis
km
Cloud Weather Temp
°C
Press
MSL
hPa
Rain since
9am
mm
Dir  Spd
kts
Gust
kts
Height
m
Period
s
Dir
03/11:30pm SE 11 13 - - - - - - - 18.7 1018.5 0.0
03/11:00pm SE 10 14 - - - - - - - 18.9 1018.7 0.0
03/10:30pm SE 10 12 - - - - - - - 18.7 1018.7 0.0
03/10:00pm SE 9 11 - - - - - - - 18.5 1018.7 0.0
03/09:30pm SE 9 11 - - - - - - - 18.8 1018.6 0.0
03/09:00pm SE 10 12 - - - - - - - 19.3 1018.4 0.0
03/08:30pm SE 9 11 - - - - - - - 19.2 1018.2 0.0
03/08:00pm SE 8 9 - - - - - - - 18.2 1017.9 0.0
03/07:30pm SE 7 9 - - - - - - - 18.9 1017.6 0.0
03/07:00pm SSE 8 9 - - - - - - - 20.5 1017.2 0.0
03/06:30pm SSE 8 10 - - - - - - - 21.6 1016.8 0.0
03/06:00pm SE 8 11 - - - - - - - 23.3 1016.6 0.0
03/05:30pm SE 11 15 - - - - - - - 24.9 1016.2 0.0
03/05:00pm SE 12 15 - - - - - - - 25.9 1016.1 0.0
03/04:30pm SE 13 18 - - - - - - - 26.2 1016.2 0.0
03/04:00pm SE 14 22 - - - - - - - 26.5 1016.1 0.0
03/03:30pm ESE 14 19 - - - - - - - 26.5 1016.2 0.0
03/03:00pm SE 15 20 - - - - - - - 26.1 1016.2 0.0
03/02:30pm SE 16 22 - - - - - - - 25.8 1016.3 0.0
03/02:00pm ESE 15 22 - - - - - - - 25.5 1016.5 0.0
03/01:30pm ESE 15 20 - - - - - - - 25.5 1016.8 0.0
03/01:00pm ESE 16 23 - - - - - - - 24.5 1017.3 0.0
03/12:30pm ESE 15 21 - - - - - - - 24.1 1017.7 0.0
03/12:00pm ESE 17 25 - - - - - - - 23.9 1018.1 0.0
03/11:30am ESE 17 24 - - - - - - - 22.7 1018.6 0.0
03/11:00am ESE 18 25 - - - - - - - 21.6 1018.9 0.0
03/10:30am ESE 17 23 - - - - - - - 20.4 1019.3 0.0
03/10:00am ESE 18 26 - - - - - - - 19.3 1019.5 0.0
03/09:30am ESE 18 25 - - - - - - - 19.2 1019.6 0.0
03/09:10am ESE 17 27 - - - - - - - 19.3 1019.6 0.0
03/09:00am ESE 18 25 - - - - - - - 18.8 1019.6 0.0
03/08:37am ESE 17 27 - - - - - - - 18.6 1019.6 0.0
03/08:30am ESE 18 27 - - - - - - - 18.4 1019.6 0.0
03/08:12am ESE 18 28 - - - - - - - 18.0 1019.5 0.0
03/08:00am ESE 18 25 - - - - - - - 17.8 1019.4 0.0
03/07:48am ESE 16 27 - - - - - - - 17.5 1019.3 0.0
03/07:30am ESE 15 19 - - - - - - - 16.7 1019.2 0.0
03/07:00am SE 14 19 - - - - - - - 15.9 1019.0 0.0
03/06:30am ESE 12 17 - - - - - - - 15.6 1018.9 0.0
03/06:00am ESE 13 17 - - - - - - - 15.7 1018.7 0.0
03/05:30am ESE 12 17 - - - - - - - 15.2 1018.4 0.0
03/05:00am SE 11 14 - - - - - - - 14.2 1018.4 0.0
03/04:30am SE 11 15 - - - - - - - 14.1 1018.5 0.0
03/04:00am SE 11 17 - - - - - - - 14.2 1018.5 0.0
03/03:30am SE 13 18 - - - - - - - 14.4 1018.8 0.0
03/03:00am SE 13 19 - - - - - - - 14.7 1018.9 0.0
03/02:30am SE 11 15 - - - - - - - 14.5 1019.0 0.0
03/02:00am SSE 12 16 - - - - - - - 14.9 1018.9 0.0
03/01:30am SSE 11 15 - - - - - - - 15.3 1019.1 0.0
03/01:00am SSE 12 15 - - - - - - - 15.8 1019.1 0.0
03/12:30am SSE 10 15 - - - - - - - 16.2 1019.2 0.0
03/12:00am SSE 10 14 - - - - - - - 16.3 1019.2 0.0
 
Date/Time
WST
Wind Sea
Height
m
Swell Vis
km
Cloud Weather Temp
°C
Press
MSL
hPa
Rain since
9am
mm
Dir  Spd
kts
Gust
kts
Height
m
Period
s
Dir
02/11:30pm SE 11 15 - - - - - - - 16.8 1019.1 0.0
02/11:00pm SE 11 15 - - - - - - - 17.2 1019.1 0.0
02/10:30pm SE 11 15 - - - - - - - 17.2 1019.2 0.0
02/10:00pm SE 12 16 - - - - - - - 17.4 1019.1 0.0
02/09:30pm SE 12 19 - - - - - - - 17.8 1019.0 0.0
02/09:00pm SE 12 17 - - - - - - - 18.0 1018.7 0.0
02/08:30pm SSE 11 16 - - - - - - - 17.7 1018.3 0.0
02/08:00pm SSE 10 13 - - - - - - - 18.2 1018.1 0.0
02/07:30pm SE 12 16 - - - - - - - 19.2 1017.9 0.0
02/07:00pm SE 12 17 - - - - - - - 19.3 1017.6 0.0
02/06:30pm SE 11 17 - - - - - - - 19.5 1017.3 0.0
02/06:00pm SE 12 16 - - - - - - - 20.0 1016.8 0.0
02/05:30pm SE 13 18 - - - - - - - 20.7 1016.7 0.0
02/05:00pm SE 14 20 - - - - - - - 21.3 1016.6 0.0
02/04:30pm SE 16 23 - - - - - - - 22.0 1016.7 0.0
02/04:00pm SE 17 23 - - - - - - - 21.5 1016.9 0.0
02/03:30pm SE 18 24 - - - - - - - 22.1 1017.2 0.0
02/03:05pm SE 15 25 - - - - - - - 22.3 1017.4 0.0
02/03:00pm SE 16 23 - - - - - - - 22.1 1017.4 0.0
02/02:30pm SE 16 23 - - - - - - - 21.4 1017.5 0.0
02/02:21pm SE 15 25 - - - - - - - 22.2 1017.6 0.0
02/02:00pm SE 17 24 - - - - - - - 21.7 1017.8 0.0
02/01:30pm SE 15 23 - - - - - - - 21.1 1018.3 0.0
02/01:00pm ESE 15 22 - - - - - - - 21.6 1018.7 0.0
02/12:30pm SE 18 25 - - - - - - - 20.7 1019.2 0.0
02/12:00pm ESE 15 21 - - - - - - - 19.7 1020.0 0.0
02/11:30am ESE 16 21 - - - - - - - 19.2 1020.5 0.0
02/11:00am ESE 17 24 - - - - - - - 17.5 1020.7 0.0
02/10:30am ESE 17 26 - - - - - - - 17.8 1021.0 0.0
02/10:24am ESE 16 26 - - - - - - - 17.5 1021.1 0.0
02/10:00am ESE 18 25 - - - - - - - 17.2 1021.0 0.0
02/09:44am SE 17 28 - - - - - - - 16.9 1021.1 0.0
02/09:30am ESE 18 26 - - - - - - - 16.7 1021.1 0.0
02/09:00am ESE 17 24 - - - - - - - 16.7 1021.1 0.0
02/08:30am ESE 15 25 - - - - - - - 16.5 1021.0 0.0
02/08:23am SE 15 25 - - - - - - - 16.4 1020.9 0.0
02/08:00am SE 13 19 - - - - - - - 16.1 1020.9 0.0
02/07:30am SE 12 17 - - - - - - - 14.9 1020.6 0.0
02/07:00am SE 11 16 - - - - - - - 13.8 1020.0 0.0
02/06:30am SE 13 18 - - - - - - - 14.0 1019.6 0.0
02/06:00am SE 11 16 - - - - - - - 14.4 1019.4 0.0
02/05:30am SE 14 19 - - - - - - - 14.8 1019.1 0.0
02/05:00am SE 15 21 - - - - - - - 15.0 1018.7 0.0
02/04:30am SE 14 20 - - - - - - - 15.2 1018.8 0.0
02/04:00am SE 13 19 - - - - - - - 15.5 1018.8 0.0
02/03:30am SE 13 19 - - - - - - - 15.7 1018.7 0.0
02/03:00am SE 14 20 - - - - - - - 16.0 1018.9 0.0
02/02:30am SE 14 20 - - - - - - - 16.5 1019.1 0.0
02/02:00am SE 16 23 - - - - - - - 16.9 1019.1 0.0
02/01:30am SE 14 20 - - - - - - - 17.2 1019.5 0.0
02/01:00am SE 15 20 - - - - - - - 17.4 1019.4 0.0
02/12:30am SE 15 20 - - - - - - - 17.6 1019.4 0.0
02/12:00am SSE 14 21 - - - - - - - 17.9 1019.6 0.0
 
Date/Time
WST
Wind Sea
Height
m
Swell Vis
km
Cloud Weather Temp
°C
Press
MSL
hPa
Rain since
9am
mm
Dir  Spd
kts
Gust
kts
Height
m
Period
s
Dir
01/11:30pm SSE 14 21 - - - - - - - 18.0 1019.7 0.0
01/11:00pm SSE 15 23 - - - - - - - 18.2 1019.7 0.0
01/10:30pm SSE 16 21 - - - - - - - 18.4 1019.8 0.0
01/10:00pm SSE 14 20 - - - - - - - 18.7 1019.6 0.0

Other formats

Comma delimited format used in spreadsheet applications
http://www.bom.gov.au/fwo/IDW60701/IDW60701.95402.axf

JavaScript Object Notation format (JSON) in row-major order
http://www.bom.gov.au/fwo/IDW60701/IDW60701.95402.json

Data quality

Most of these data are generated automatically and are frequently updated. Quality checks on data are not normally performed. It is possible for incorrect values to appear. Refer to information at About Latest Weather Observations and please check the disclaimer before using these data.